createdAt,value
2019-03-15T00:01:16.160Z,61.78
2019-03-15T00:03:47.914Z,61.66
2019-03-15T00:06:19.591Z,61.63
2019-03-15T00:08:51.274Z,61.53
2019-03-15T00:11:23.099Z,61.47
2019-03-15T00:13:54.848Z,61.46
2019-03-15T00:16:26.525Z,61.52
2019-03-15T00:18:59.200Z,61.59
2019-03-15T00:21:30.800Z,61.77
2019-03-15T00:24:02.622Z,61.68
2019-03-15T00:26:34.268Z,61.63
2019-03-15T00:29:06.043Z,61.66
2019-03-15T00:31:37.905Z,61.70
2019-03-15T00:34:09.560Z,61.78
2019-03-15T00:36:41.429Z,61.98
2019-03-15T00:39:13.072Z,62.19
2019-03-15T00:41:44.644Z,62.40
2019-03-15T00:44:16.481Z,62.59
2019-03-15T00:46:47.953Z,62.83
2019-03-15T00:49:19.338Z,63.08
2019-03-15T00:51:51.701Z,63.28
2019-03-15T00:54:23.094Z,63.37
2019-03-15T00:56:54.378Z,63.41
2019-03-15T00:59:25.937Z,63.49
2019-03-15T01:01:57.287Z,63.63
2019-03-15T01:04:28.941Z,63.96
2019-03-15T01:07:00.804Z,64.18
2019-03-15T01:09:32.357Z,64.35
2019-03-15T01:12:03.821Z,64.51
2019-03-15T01:14:35.778Z,64.37
2019-03-15T01:17:07.128Z,64.38
2019-03-15T01:19:39.707Z,64.41
2019-03-15T01:22:11.161Z,64.36
2019-03-15T01:24:42.917Z,64.18
2019-03-15T01:27:14.667Z,64.16
2019-03-15T01:29:47.347Z,64.00
2019-03-15T01:32:18.911Z,63.90
2019-03-15T01:34:50.511Z,63.73
2019-03-15T01:37:22.333Z,63.64
2019-03-15T01:39:53.867Z,63.51
2019-03-15T01:42:25.757Z,63.55
2019-03-15T01:44:57.409Z,63.57
2019-03-15T01:47:29.273Z,63.44
2019-03-15T01:50:00.833Z,63.35
2019-03-15T01:52:32.360Z,63.34
2019-03-15T01:55:05.770Z,63.17
2019-03-15T01:57:37.341Z,63.13
2019-03-15T02:00:10.505Z,63.11
2019-03-15T02:02:42.293Z,63.16
2019-03-15T02:05:13.949Z,63.18
2019-03-15T02:07:45.795Z,63.29
2019-03-15T02:10:17.469Z,63.43
2019-03-15T02:12:48.918Z,63.51
2019-03-15T02:15:20.572Z,63.41
2019-03-15T02:17:52.705Z,63.34
2019-03-15T02:20:24.377Z,63.42
2019-03-15T02:22:55.845Z,63.45
2019-03-15T02:25:27.561Z,63.49
2019-03-15T02:27:59.574Z,63.50
2019-03-15T02:30:31.213Z,63.55
2019-03-15T02:33:02.703Z,63.73
2019-03-15T02:35:34.338Z,63.93
2019-03-15T02:38:05.916Z,64.08
2019-03-15T02:40:37.444Z,64.22
2019-03-15T02:43:10.228Z,64.40
2019-03-15T02:45:41.890Z,64.58
2019-03-15T02:48:13.847Z,64.74
2019-03-15T02:50:45.445Z,64.80
2019-03-15T02:53:17.267Z,64.93
2019-03-15T02:55:49.031Z,64.94
2019-03-15T02:58:20.593Z,65.03
2019-03-15T03:00:52.327Z,65.10
2019-03-15T03:03:23.894Z,65.16
2019-03-15T03:05:55.450Z,65.17
2019-03-15T03:08:27.312Z,65.21
2019-03-15T03:10:58.972Z,65.11
2019-03-15T03:13:30.646Z,65.03
2019-03-15T03:16:03.503Z,65.06
2019-03-15T03:18:35.387Z,65.10
2019-03-15T03:21:06.974Z,65.12
2019-03-15T03:23:38.706Z,65.24
2019-03-15T03:26:12.796Z,65.29
2019-03-15T03:28:44.887Z,65.39
2019-03-15T03:31:16.483Z,65.48
2019-03-15T03:33:47.984Z,65.55
2019-03-15T03:36:19.751Z,65.56
2019-03-15T03:38:51.389Z,65.60
2019-03-15T03:41:23.233Z,65.60
2019-03-15T03:43:54.925Z,65.61
2019-03-15T03:46:27.359Z,65.62
2019-03-15T03:48:58.834Z,65.60
2019-03-15T03:51:30.394Z,65.63
2019-03-15T03:54:01.946Z,65.63
2019-03-15T03:56:33.821Z,65.69
2019-03-15T03:59:05.484Z,65.86
2019-03-15T04:01:37.340Z,66.08
2019-03-15T04:04:08.803Z,66.11
2019-03-15T04:06:40.459Z,66.22
2019-03-15T04:09:12.006Z,66.34
2019-03-15T04:11:54.913Z,66.44
2019-03-15T04:14:16.676Z,66.55
2019-03-15T04:16:48.308Z,66.67
2019-03-15T04:19:20.173Z,66.72
2019-03-15T04:21:51.811Z,66.76
2019-03-15T04:24:23.688Z,66.85
2019-03-15T04:26:55.335Z,66.92
2019-03-15T04:29:27.218Z,67.05
2019-03-15T04:31:58.863Z,67.13
2019-03-15T04:34:30.425Z,67.27
2019-03-15T04:37:02.261Z,67.37
2019-03-15T04:39:33.818Z,67.48
2019-03-15T04:42:05.478Z,67.55
2019-03-15T04:44:37.259Z,67.56
2019-03-15T04:47:10.228Z,67.57
2019-03-15T04:49:41.679Z,67.63
2019-03-15T04:52:13.542Z,67.64
2019-03-15T04:54:45.320Z,67.44
2019-03-15T04:57:16.954Z,67.27
2019-03-15T04:59:48.630Z,67.00
2019-03-15T05:02:20.679Z,66.63
2019-03-15T05:04:52.248Z,66.34
2019-03-15T05:07:23.911Z,66.09
2019-03-15T05:09:55.241Z,66.00
2019-03-15T05:12:27.055Z,65.88
2019-03-15T05:14:58.884Z,65.67
2019-03-15T05:17:30.519Z,65.29
2019-03-15T05:20:02.397Z,65.03
2019-03-15T05:22:34.271Z,64.53
2019-03-15T05:25:07.177Z,64.30
2019-03-15T05:27:38.584Z,64.15
2019-03-15T05:30:11.483Z,63.74
2019-03-15T05:32:42.961Z,63.28
2019-03-15T05:35:14.698Z,63.17
2019-03-15T05:37:46.351Z,63.15
2019-03-15T05:40:17.956Z,63.02
2019-03-15T05:42:49.463Z,62.67
2019-03-15T05:45:21.114Z,62.25
2019-03-15T05:47:52.752Z,61.99
2019-03-15T05:50:24.640Z,61.88
2019-03-15T05:52:56.233Z,61.73
2019-03-15T05:55:27.939Z,61.01
2019-03-15T05:57:59.722Z,60.90
2019-03-15T06:00:31.679Z,60.70
2019-03-15T06:03:06.324Z,60.20
2019-03-15T06:05:38.291Z,60.45
2019-03-15T06:08:10.123Z,60.54
2019-03-15T06:10:42.083Z,60.33
2019-03-15T06:13:13.662Z,59.91
2019-03-15T06:15:46.171Z,59.64
2019-03-15T06:18:17.673Z,58.95
2019-03-15T06:20:49.324Z,59.21
2019-03-15T06:23:20.881Z,59.19
2019-03-15T06:25:52.665Z,58.76
2019-03-15T06:28:24.032Z,58.51
2019-03-15T06:30:55.428Z,58.50
2019-03-15T06:33:28.717Z,57.56
2019-03-15T06:36:00.102Z,57.54
2019-03-15T06:38:33.516Z,56.88
2019-03-15T06:41:05.063Z,57.21
2019-03-15T06:43:36.606Z,57.13
2019-03-15T06:46:08.367Z,57.21
2019-03-15T06:48:40.008Z,57.19
2019-03-15T06:51:11.683Z,56.71
2019-03-15T06:53:43.440Z,57.11
2019-03-15T06:56:14.998Z,56.82
2019-03-15T06:58:46.907Z,56.78
2019-03-15T07:01:18.691Z,56.72
2019-03-15T07:03:50.561Z,56.57
2019-03-15T07:06:22.059Z,56.46
2019-03-15T07:08:53.689Z,56.30
2019-03-15T07:11:25.457Z,56.13
2019-03-15T07:13:57.117Z,56.05
2019-03-15T07:16:29.546Z,56.64
2019-03-15T07:19:00.928Z,56.76
2019-03-15T07:21:32.574Z,56.42
2019-03-15T07:24:04.126Z,55.51
2019-03-15T07:26:36.025Z,55.10
2019-03-15T07:29:07.568Z,55.29
2019-03-15T07:31:39.224Z,55.78
2019-03-15T07:34:13.641Z,55.25
2019-03-15T07:36:44.074Z,55.34
2019-03-15T07:39:16.122Z,55.59
2019-03-15T07:41:47.590Z,55.50
2019-03-15T07:44:19.275Z,55.21
2019-03-15T07:46:51.293Z,54.91
2019-03-15T07:49:23.268Z,55.32
2019-03-15T07:51:54.841Z,54.81
2019-03-15T07:54:37.394Z,54.26
2019-03-15T07:56:59.570Z,54.24
2019-03-15T07:59:31.232Z,54.26
2019-03-15T08:02:02.696Z,53.89
2019-03-15T08:04:35.963Z,53.87
2019-03-15T08:07:07.550Z,54.12
2019-03-15T08:09:39.084Z,54.63
2019-03-15T08:12:10.537Z,54.46
2019-03-15T08:14:42.009Z,53.61
2019-03-15T08:17:13.664Z,53.52
2019-03-15T08:19:45.532Z,54.06
2019-03-15T08:22:17.295Z,54.08
2019-03-15T08:24:51.700Z,54.14
2019-03-15T08:27:21.770Z,54.16
2019-03-15T08:29:53.472Z,53.91
2019-03-15T08:32:25.362Z,53.14
2019-03-15T08:34:57.008Z,53.14
2019-03-15T08:37:30.100Z,52.63
2019-03-15T08:40:01.888Z,52.49
2019-03-15T08:42:34.762Z,53.01
2019-03-15T08:45:09.897Z,52.82
2019-03-15T08:47:41.221Z,52.99
2019-03-15T08:50:15.805Z,53.14
2019-03-15T08:52:47.342Z,53.13
2019-03-15T08:55:19.080Z,53.08
2019-03-15T08:57:50.612Z,53.59
2019-03-15T09:00:22.497Z,52.97
2019-03-15T09:02:54.153Z,52.52
2019-03-15T09:05:25.709Z,51.63
2019-03-15T09:07:57.158Z,51.05
2019-03-15T09:10:28.925Z,50.98
2019-03-15T09:13:00.577Z,50.73
2019-03-15T09:15:34.099Z,50.57
2019-03-15T09:18:05.530Z,50.69
2019-03-15T09:20:36.974Z,50.17
2019-03-15T09:23:08.830Z,50.42
2019-03-15T09:25:40.503Z,51.04
2019-03-15T09:28:11.966Z,50.11
2019-03-15T09:30:43.805Z,50.19
2019-03-15T09:33:15.582Z,50.02
2019-03-15T09:35:47.226Z,50.85
2019-03-15T09:38:19.093Z,50.88
2019-03-15T09:40:50.892Z,50.94
2019-03-15T09:43:22.526Z,50.73
2019-03-15T09:45:55.627Z,50.45
2019-03-15T09:48:27.284Z,51.16
2019-03-15T09:50:59.030Z,51.04
2019-03-15T09:53:30.774Z,50.23
2019-03-15T09:56:02.449Z,50.59
2019-03-15T09:58:34.186Z,50.86
2019-03-15T10:01:06.342Z,50.65
2019-03-15T10:03:37.832Z,50.42
2019-03-15T10:06:14.882Z,49.64
2019-03-15T10:08:42.889Z,49.79
2019-03-15T10:11:14.529Z,49.58
2019-03-15T10:13:46.407Z,49.72
2019-03-15T10:16:18.045Z,49.58
2019-03-15T10:18:50.624Z,50.20
2019-03-15T10:21:22.178Z,50.00
2019-03-15T10:23:53.938Z,50.18
2019-03-15T10:26:28.072Z,50.02
2019-03-15T10:28:59.622Z,50.56
2019-03-15T10:31:30.960Z,51.04
2019-03-15T10:34:05.690Z,50.94
2019-03-15T10:36:35.813Z,49.98
2019-03-15T10:39:07.877Z,50.17
2019-03-15T10:41:39.224Z,50.82
2019-03-15T10:44:11.211Z,49.97
2019-03-15T10:46:42.763Z,49.97
2019-03-15T10:49:14.816Z,49.63
2019-03-15T10:51:46.491Z,49.76
2019-03-15T10:54:18.334Z,49.87
2019-03-15T10:56:49.685Z,49.94
2019-03-15T10:59:21.258Z,50.30
2019-03-15T11:01:56.248Z,49.86
2019-03-15T11:04:28.042Z,50.07
2019-03-15T11:06:59.490Z,50.18
2019-03-15T11:09:31.368Z,50.34
2019-03-15T11:12:04.054Z,50.95
2019-03-15T11:14:35.812Z,50.65
2019-03-15T11:17:08.783Z,50.37
2019-03-15T11:19:40.660Z,50.29
2019-03-15T11:22:12.095Z,50.39
2019-03-15T11:24:44.179Z,50.36
2019-03-15T11:27:15.736Z,50.35
2019-03-15T11:29:47.288Z,50.04
2019-03-15T11:32:19.093Z,49.78
2019-03-15T11:34:50.909Z,49.60
2019-03-15T11:37:22.553Z,49.91
2019-03-15T11:39:54.208Z,50.16
2019-03-15T11:42:25.677Z,50.08
2019-03-15T11:44:57.558Z,50.11
2019-03-15T11:47:29.312Z,50.50
2019-03-15T11:50:00.955Z,50.49
2019-03-15T11:52:32.614Z,49.86
2019-03-15T11:55:05.083Z,50.17
2019-03-15T11:57:36.665Z,50.46
2019-03-15T12:00:16.453Z,51.15
2019-03-15T12:02:47.819Z,50.88
2019-03-15T12:05:19.495Z,50.78
2019-03-15T12:07:51.278Z,51.46
2019-03-15T12:10:23.226Z,52.09
2019-03-15T12:12:54.866Z,52.01
2019-03-15T12:15:26.829Z,52.25
2019-03-15T12:17:58.280Z,52.02
2019-03-15T12:20:31.283Z,51.94
2019-03-15T12:23:03.025Z,51.46
2019-03-15T12:25:34.709Z,50.75
2019-03-15T12:28:06.044Z,50.99
2019-03-15T12:30:37.811Z,50.18
2019-03-15T12:33:09.469Z,50.07
2019-03-15T12:35:41.310Z,50.08
2019-03-15T12:38:12.970Z,49.83
2019-03-15T12:40:44.423Z,49.64
2019-03-15T12:43:16.200Z,49.91
2019-03-15T12:45:47.856Z,50.13
2019-03-15T12:48:19.186Z,50.40
2019-03-15T12:50:50.964Z,49.60
2019-03-15T12:53:22.418Z,49.98
2019-03-15T12:55:56.230Z,50.32
2019-03-15T12:58:29.972Z,51.05
2019-03-15T13:01:01.285Z,51.62
2019-03-15T13:03:32.695Z,51.72
2019-03-15T13:06:04.371Z,51.91
2019-03-15T13:08:36.242Z,52.62
2019-03-15T13:11:08.115Z,52.39
2019-03-15T13:13:39.575Z,52.49
2019-03-15T13:16:11.432Z,52.85
2019-03-15T13:18:43.090Z,52.73
2019-03-15T13:21:14.951Z,52.80
2019-03-15T13:23:46.610Z,52.36
2019-03-15T13:26:18.250Z,52.88
2019-03-15T13:28:50.128Z,52.20
2019-03-15T13:31:21.884Z,51.80
2019-03-15T13:33:53.732Z,51.32
2019-03-15T13:36:26.215Z,51.11
2019-03-15T13:38:57.970Z,51.96
2019-03-15T13:41:29.539Z,52.45
2019-03-15T13:44:01.398Z,52.24
2019-03-15T13:46:33.054Z,52.65
2019-03-15T13:49:04.593Z,52.68
2019-03-15T13:51:36.479Z,53.03
2019-03-15T13:54:08.234Z,53.24
2019-03-15T13:56:39.787Z,53.82
2019-03-15T13:59:11.549Z,53.83
2019-03-15T14:01:43.415Z,53.76
2019-03-15T14:04:15.259Z,53.80
2019-03-15T14:06:47.072Z,54.02
2019-03-15T14:09:18.938Z,54.47
2019-03-15T14:11:50.741Z,55.27
2019-03-15T14:14:22.312Z,55.64
2019-03-15T14:16:54.076Z,55.85
2019-03-15T14:19:25.707Z,55.64
2019-03-15T14:21:58.633Z,56.08
2019-03-15T14:24:30.473Z,56.26
2019-03-15T14:27:02.117Z,56.45
2019-03-15T14:29:33.987Z,56.91
2019-03-15T14:32:06.928Z,57.21
2019-03-15T14:34:38.641Z,56.96
2019-03-15T14:37:10.855Z,57.35
2019-03-15T14:39:42.578Z,57.27
2019-03-15T14:42:14.392Z,57.24
2019-03-15T14:44:46.142Z,57.88
2019-03-15T14:47:17.721Z,57.49
2019-03-15T14:49:49.219Z,57.64
2019-03-15T14:52:21.035Z,57.82
2019-03-15T14:54:52.900Z,57.43
2019-03-15T14:57:24.573Z,57.77
2019-03-15T14:59:56.538Z,58.20
2019-03-15T15:02:28.295Z,58.45
2019-03-15T15:04:59.746Z,58.74
2019-03-15T15:07:31.494Z,58.98
2019-03-15T15:10:03.379Z,59.10
2019-03-15T15:12:34.858Z,59.31
2019-03-15T15:15:11.704Z,59.50
2019-03-15T15:17:43.463Z,59.75
2019-03-15T15:20:15.075Z,60.07
2019-03-15T15:22:46.981Z,60.31
2019-03-15T15:25:18.871Z,60.68
2019-03-15T15:28:03.487Z,60.84
2019-03-15T15:30:23.384Z,61.22
2019-03-15T15:32:55.042Z,61.61
2019-03-15T15:35:26.705Z,61.56
2019-03-15T15:37:58.552Z,61.99
2019-03-15T15:40:30.221Z,62.32
2019-03-15T15:43:01.981Z,62.68
2019-03-15T15:45:33.737Z,62.60
2019-03-15T15:48:05.598Z,62.71
2019-03-15T15:50:37.241Z,62.87
2019-03-15T15:53:11.142Z,63.17
2019-03-15T15:55:42.191Z,63.39
2019-03-15T15:58:18.184Z,63.54
2019-03-15T16:00:47.882Z,63.71
2019-03-15T16:03:19.420Z,63.87
2019-03-15T16:05:50.999Z,64.10
2019-03-15T16:08:22.839Z,64.17
2019-03-15T16:10:54.828Z,64.26
2019-03-15T16:13:26.581Z,64.39
2019-03-15T16:15:58.244Z,64.48
2019-03-15T16:18:30.040Z,64.57
2019-03-15T16:21:01.643Z,64.70
2019-03-15T16:23:33.217Z,64.79
2019-03-15T16:26:05.082Z,64.89
2019-03-15T16:28:36.720Z,64.99
2019-03-15T16:31:08.685Z,65.05
2019-03-15T16:33:40.362Z,65.10
2019-03-15T16:36:11.915Z,65.20
2019-03-15T16:38:43.775Z,65.29
2019-03-15T16:41:15.433Z,65.43
2019-03-15T16:43:46.988Z,65.53
2019-03-15T16:46:18.834Z,65.59
2019-03-15T16:48:51.512Z,65.55
2019-03-15T16:51:24.088Z,65.53
2019-03-15T16:53:55.647Z,65.60
2019-03-15T16:56:27.525Z,65.59
2019-03-15T16:58:58.999Z,65.56
2019-03-15T17:01:30.736Z,65.68
2019-03-15T17:04:02.395Z,65.72
2019-03-15T17:06:33.968Z,65.72
2019-03-15T17:09:07.129Z,65.68
2019-03-15T17:11:38.798Z,65.62
2019-03-15T17:14:10.570Z,65.64
2019-03-15T17:16:42.425Z,65.84
2019-03-15T17:19:13.876Z,65.92
2019-03-15T17:21:45.841Z,65.90
2019-03-15T17:24:17.485Z,66.00
2019-03-15T17:26:51.457Z,66.03
2019-03-15T17:29:22.253Z,66.03
2019-03-15T17:31:54.015Z,66.01
2019-03-15T17:34:25.668Z,65.98
2019-03-15T17:37:06.677Z,66.11
2019-03-15T17:39:31.117Z,66.04
2019-03-15T17:42:03.408Z,65.95
2019-03-15T17:44:35.465Z,65.97
2019-03-15T17:47:07.003Z,65.92
2019-03-15T17:49:38.784Z,66.02
2019-03-15T17:52:10.373Z,66.02
2019-03-15T17:54:42.201Z,66.01
2019-03-15T17:57:13.867Z,66.14
2019-03-15T18:00:01.085Z,66.12
2019-03-15T18:02:33.178Z,66.17
2019-03-15T18:05:05.832Z,66.31
2019-03-15T18:07:37.289Z,66.41
2019-03-15T18:10:09.487Z,66.51
2019-03-15T18:12:41.019Z,66.52
2019-03-15T18:15:12.732Z,66.60
2019-03-15T18:17:44.534Z,66.64
2019-03-15T18:20:16.149Z,66.77
2019-03-15T18:22:48.874Z,66.81
2019-03-15T18:25:20.372Z,66.97
2019-03-15T18:27:52.065Z,67.12
2019-03-15T18:30:23.950Z,67.23
2019-03-15T18:32:55.501Z,67.29
2019-03-15T18:35:33.733Z,67.19
2019-03-15T18:38:01.018Z,67.21
2019-03-15T18:40:32.514Z,67.17
2019-03-15T18:43:04.399Z,67.23
2019-03-15T18:45:35.935Z,67.21
2019-03-15T18:48:07.582Z,67.22
2019-03-15T18:50:39.454Z,67.28
2019-03-15T18:53:12.237Z,67.34
2019-03-15T18:55:43.883Z,67.36
2019-03-15T18:58:15.557Z,67.47
2019-03-15T19:00:47.290Z,67.57
2019-03-15T19:03:18.764Z,67.65
2019-03-15T19:05:50.514Z,67.72
2019-03-15T19:08:23.202Z,67.74
2019-03-15T19:10:54.863Z,67.67
2019-03-15T19:13:26.310Z,67.62
2019-03-15T19:15:58.090Z,67.56
2019-03-15T19:18:29.529Z,67.64
2019-03-15T19:21:04.108Z,67.76
2019-03-15T19:23:41.539Z,67.96
2019-03-15T19:26:13.402Z,68.03
2019-03-15T19:28:45.061Z,68.16
2019-03-15T19:31:16.620Z,68.18
2019-03-15T19:33:48.050Z,68.28
2019-03-15T19:36:19.736Z,68.40
2019-03-15T19:38:51.712Z,68.44
2019-03-15T19:41:23.074Z,68.49
2019-03-15T19:43:55.019Z,68.54
2019-03-15T19:46:26.654Z,68.55
2019-03-15T19:48:58.192Z,68.51
2019-03-15T19:51:29.624Z,68.52
2019-03-15T19:54:01.420Z,68.59
2019-03-15T19:56:33.188Z,68.60
2019-03-15T19:59:04.839Z,68.70
2019-03-15T20:01:36.703Z,68.80
2019-03-15T20:04:08.381Z,68.91
2019-03-15T20:06:40.224Z,69.07
2019-03-15T20:09:11.965Z,69.18
2019-03-15T20:11:43.533Z,69.29
2019-03-15T20:14:15.229Z,69.41
2019-03-15T20:16:46.953Z,69.48
2019-03-15T20:19:18.406Z,69.58
2019-03-15T20:21:50.165Z,69.69
2019-03-15T20:24:21.820Z,69.79
2019-03-15T20:26:53.467Z,69.92
2019-03-15T20:29:25.240Z,69.95
2019-03-15T20:31:56.684Z,70.08
2019-03-15T20:34:28.325Z,70.17
2019-03-15T20:36:59.900Z,70.20
2019-03-15T20:39:31.887Z,70.33
2019-03-15T20:42:03.319Z,70.46
2019-03-15T20:44:35.206Z,70.61
2019-03-15T20:47:07.070Z,70.63
2019-03-15T20:49:38.494Z,70.63
2019-03-15T20:52:10.147Z,70.67
2019-03-15T20:54:41.992Z,70.74
2019-03-15T20:57:13.573Z,70.78
2019-03-15T20:59:45.217Z,70.82
2019-03-15T21:02:16.856Z,70.87
2019-03-15T21:04:49.457Z,70.93
2019-03-15T21:07:21.092Z,70.97
2019-03-15T21:09:52.769Z,71.07
2019-03-15T21:12:24.425Z,71.12
2019-03-15T21:14:56.180Z,71.20
2019-03-15T21:17:27.735Z,71.33
2019-03-15T21:19:59.626Z,71.42
2019-03-15T21:22:32.679Z,71.47
2019-03-15T21:25:04.658Z,71.51
2019-03-15T21:27:37.895Z,71.50
2019-03-15T21:30:20.558Z,71.51
2019-03-15T21:32:52.118Z,71.50
2019-03-15T21:35:23.576Z,71.56
2019-03-15T21:37:55.211Z,71.60
2019-03-15T21:40:26.933Z,71.65
2019-03-15T21:42:58.514Z,71.73
2019-03-15T21:45:30.287Z,71.82
2019-03-15T21:48:01.947Z,71.97
2019-03-15T21:50:33.706Z,72.10
2019-03-15T21:53:05.314Z,72.23
2019-03-15T21:55:37.016Z,72.31
2019-03-15T21:58:08.699Z,72.34
2019-03-15T22:00:40.353Z,72.42
2019-03-15T22:03:11.910Z,72.48
2019-03-15T22:05:43.360Z,72.48
2019-03-15T22:08:15.018Z,72.47
2019-03-15T22:10:48.220Z,72.49
2019-03-15T22:13:19.665Z,72.54
2019-03-15T22:15:52.084Z,72.58
2019-03-15T22:18:23.595Z,72.57
2019-03-15T22:20:55.352Z,72.48
2019-03-15T22:23:28.192Z,72.47
2019-03-15T22:26:00.009Z,72.54
2019-03-15T22:28:34.214Z,72.61
2019-03-15T22:31:16.649Z,72.63
2019-03-15T22:33:39.866Z,72.67
2019-03-15T22:36:11.420Z,72.57
2019-03-15T22:38:43.400Z,72.54
2019-03-15T22:41:14.954Z,72.62
2019-03-15T22:43:46.921Z,72.68
2019-03-15T22:46:18.378Z,72.75
2019-03-15T22:48:50.132Z,72.84
2019-03-15T22:51:21.895Z,72.94
2019-03-15T22:53:53.546Z,73.05
2019-03-15T22:56:24.896Z,73.21
2019-03-15T22:58:56.692Z,73.36
2019-03-15T23:01:30.481Z,73.47
2019-03-15T23:04:01.600Z,73.58
2019-03-15T23:06:34.519Z,73.73
2019-03-15T23:09:07.560Z,73.90
2019-03-15T23:11:40.085Z,74.08
2019-03-15T23:14:11.720Z,74.23
2019-03-15T23:16:43.273Z,74.53
2019-03-15T23:19:14.826Z,74.75
2019-03-15T23:21:47.409Z,74.87
2019-03-15T23:24:19.044Z,74.99
2019-03-15T23:26:50.735Z,75.09
2019-03-15T23:29:22.362Z,75.15
2019-03-15T23:31:55.359Z,75.21
2019-03-15T23:34:26.917Z,75.16
2019-03-15T23:36:58.563Z,75.15
2019-03-15T23:39:30.250Z,75.09
2019-03-15T23:42:01.767Z,75.01
2019-03-15T23:44:33.718Z,74.92
2019-03-15T23:47:05.153Z,74.85
2019-03-15T23:49:36.660Z,74.84
2019-03-15T23:52:08.428Z,74.88
2019-03-15T23:54:40.262Z,74.97
2019-03-15T23:57:11.832Z,74.97
2019-03-15T23:59:43.588Z,74.94
